sensor_id;sensor_type;location;lat;lon;timestamp;temperature;humidity
22008;DHT22;11168;56.976;24.168;2023-05-16T00:00:41;15.50;99.90
22008;DHT22;11168;56.976;24.168;2023-05-16T00:03:08;15.40;99.90
22008;DHT22;11168;56.976;24.168;2023-05-16T00:05:37;15.30;99.90
22008;DHT22;11168;56.976;24.168;2023-05-16T00:08:05;15.20;99.90
22008;DHT22;11168;56.976;24.168;2023-05-16T00:10:33;15.10;99.90
22008;DHT22;11168;56.976;24.168;2023-05-16T00:13:00;14.90;99.90
22008;DHT22;11168;56.976;24.168;2023-05-16T00:15:28;14.80;99.90
22008;DHT22;11168;56.976;24.168;2023-05-16T00:17:58;14.80;99.90
22008;DHT22;11168;56.976;24.168;2023-05-16T00:20:26;14.70;99.90
22008;DHT22;11168;56.976;24.168;2023-05-16T00:22:54;14.60;99.90
22008;DHT22;11168;56.976;24.168;2023-05-16T00:25:22;14.60;99.90
22008;DHT22;11168;56.976;24.168;2023-05-16T00:27:49;14.50;99.90
22008;DHT22;11168;56.976;24.168;2023-05-16T00:30:16;14.50;99.90
22008;DHT22;11168;56.976;24.168;2023-05-16T00:32:43;14.40;99.90
22008;DHT22;11168;56.976;24.168;2023-05-16T00:35:10;14.30;99.90
22008;DHT22;11168;56.976;24.168;2023-05-16T00:37:38;14.30;99.90
22008;DHT22;11168;56.976;24.168;2023-05-16T00:40:06;14.20;99.90
22008;DHT22;11168;56.976;24.168;2023-05-16T00:42:33;14.10;99.90
22008;DHT22;11168;56.976;24.168;2023-05-16T00:45:00;14.10;99.90
22008;DHT22;11168;56.976;24.168;2023-05-16T00:47:27;14.00;99.90
22008;DHT22;11168;56.976;24.168;2023-05-16T00:49:54;13.90;99.90
22008;DHT22;11168;56.976;24.168;2023-05-16T00:52:21;13.90;99.90
22008;DHT22;11168;56.976;24.168;2023-05-16T00:54:49;13.80;99.90
22008;DHT22;11168;56.976;24.168;2023-05-16T00:57:17;13.80;99.90
22008;DHT22;11168;56.976;24.168;2023-05-16T00:59:46;13.80;99.90
22008;DHT22;11168;56.976;24.168;2023-05-16T01:02:13;13.80;99.90
22008;DHT22;11168;56.976;24.168;2023-05-16T01:04:41;13.80;99.90
22008;DHT22;11168;56.976;24.168;2023-05-16T01:07:09;13.80;99.90
22008;DHT22;11168;56.976;24.168;2023-05-16T01:09:36;13.70;99.90
22008;DHT22;11168;56.976;24.168;2023-05-16T01:12:47;13.70;99.90
22008;DHT22;11168;56.976;24.168;2023-05-16T01:15:29;13.60;99.90
22008;DHT22;11168;56.976;24.168;2023-05-16T01:18:08;13.60;99.90
22008;DHT22;11168;56.976;24.168;2023-05-16T01:21:06;13.50;99.90
22008;DHT22;11168;56.976;24.168;2023-05-16T01:23:48;13.50;99.90
22008;DHT22;11168;56.976;24.168;2023-05-16T01:26:20;13.50;99.90
22008;DHT22;11168;56.976;24.168;2023-05-16T01:28:49;13.50;99.90
22008;DHT22;11168;56.976;24.168;2023-05-16T01:31:18;13.40;99.90
22008;DHT22;11168;56.976;24.168;2023-05-16T01:33:46;13.40;99.90
22008;DHT22;11168;56.976;24.168;2023-05-16T01:38:58;13.40;99.90
22008;DHT22;11168;56.976;24.168;2023-05-16T01:41:46;13.40;99.90
22008;DHT22;11168;56.976;24.168;2023-05-16T01:44:28;13.40;99.90
22008;DHT22;11168;56.976;24.168;2023-05-16T01:47:00;13.40;99.90
22008;DHT22;11168;56.976;24.168;2023-05-16T01:52:09;13.40;99.90
22008;DHT22;11168;56.976;24.168;2023-05-16T01:54:38;13.50;99.90
22008;DHT22;11168;56.976;24.168;2023-05-16T01:57:07;13.40;99.90
22008;DHT22;11168;56.976;24.168;2023-05-16T01:59:35;13.40;99.90
22008;DHT22;11168;56.976;24.168;2023-05-16T02:02:03;13.40;99.90
22008;DHT22;11168;56.976;24.168;2023-05-16T02:04:31;13.40;99.90
22008;DHT22;11168;56.976;24.168;2023-05-16T02:06:58;13.40;99.90
22008;DHT22;11168;56.976;24.168;2023-05-16T02:09:26;13.40;99.90
22008;DHT22;11168;56.976;24.168;2023-05-16T02:11:53;13.40;99.90
22008;DHT22;11168;56.976;24.168;2023-05-16T02:14:20;13.40;99.90
22008;DHT22;11168;56.976;24.168;2023-05-16T02:16:47;13.30;99.90
22008;DHT22;11168;56.976;24.168;2023-05-16T02:19:14;13.30;99.90
22008;DHT22;11168;56.976;24.168;2023-05-16T02:21:41;13.30;99.90
22008;DHT22;11168;56.976;24.168;2023-05-16T02:24:08;13.20;99.90
22008;DHT22;11168;56.976;24.168;2023-05-16T02:26:35;13.20;99.90
22008;DHT22;11168;56.976;24.168;2023-05-16T02:29:02;13.20;99.90
22008;DHT22;11168;56.976;24.168;2023-05-16T02:31:31;13.20;99.90
22008;DHT22;11168;56.976;24.168;2023-05-16T02:33:58;13.20;99.90
22008;DHT22;11168;56.976;24.168;2023-05-16T02:36:25;13.20;99.90
22008;DHT22;11168;56.976;24.168;2023-05-16T02:38:52;13.10;99.90
22008;DHT22;11168;56.976;24.168;2023-05-16T02:41:19;13.30;99.90
22008;DHT22;11168;56.976;24.168;2023-05-16T02:43:48;13.20;99.90
22008;DHT22;11168;56.976;24.168;2023-05-16T02:46:29;13.20;99.90
22008;DHT22;11168;56.976;24.168;2023-05-16T02:48:57;13.30;99.90
22008;DHT22;11168;56.976;24.168;2023-05-16T02:51:26;13.20;99.90
22008;DHT22;11168;56.976;24.168;2023-05-16T02:53:53;13.20;99.90
22008;DHT22;11168;56.976;24.168;2023-05-16T02:56:22;13.10;99.90
22008;DHT22;11168;56.976;24.168;2023-05-16T02:58:49;13.10;99.90
22008;DHT22;11168;56.976;24.168;2023-05-16T03:01:16;13.10;99.90
22008;DHT22;11168;56.976;24.168;2023-05-16T03:03:44;13.10;99.90
22008;DHT22;11168;56.976;24.168;2023-05-16T03:06:11;13.10;99.90
22008;DHT22;11168;56.976;24.168;2023-05-16T03:08:38;13.10;99.90
22008;DHT22;11168;56.976;24.168;2023-05-16T03:11:05;13.10;99.90
22008;DHT22;11168;56.976;24.168;2023-05-16T03:13:32;13.10;99.90
22008;DHT22;11168;56.976;24.168;2023-05-16T03:16:00;13.00;99.90
22008;DHT22;11168;56.976;24.168;2023-05-16T03:18:27;13.10;99.90
22008;DHT22;11168;56.976;24.168;2023-05-16T03:20:54;13.10;99.90
22008;DHT22;11168;56.976;24.168;2023-05-16T03:23:22;13.10;99.90
22008;DHT22;11168;56.976;24.168;2023-05-16T03:25:49;13.10;99.90
22008;DHT22;11168;56.976;24.168;2023-05-16T03:28:16;13.10;99.90
22008;DHT22;11168;56.976;24.168;2023-05-16T03:30:44;13.10;99.90
22008;DHT22;11168;56.976;24.168;2023-05-16T03:33:11;13.20;99.90
22008;DHT22;11168;56.976;24.168;2023-05-16T03:35:38;13.20;99.90
22008;DHT22;11168;56.976;24.168;2023-05-16T03:38:05;13.10;99.90
22008;DHT22;11168;56.976;24.168;2023-05-16T03:40:32;13.10;99.90
22008;DHT22;11168;56.976;24.168;2023-05-16T03:42:59;13.10;99.90
22008;DHT22;11168;56.976;24.168;2023-05-16T03:45:26;13.10;99.90
22008;DHT22;11168;56.976;24.168;2023-05-16T03:47:54;13.10;99.90
22008;DHT22;11168;56.976;24.168;2023-05-16T03:50:21;13.30;99.90
22008;DHT22;11168;56.976;24.168;2023-05-16T03:52:48;13.20;99.90
22008;DHT22;11168;56.976;24.168;2023-05-16T03:55:15;13.20;99.90
22008;DHT22;11168;56.976;24.168;2023-05-16T03:57:42;13.20;99.90
22008;DHT22;11168;56.976;24.168;2023-05-16T04:00:10;13.20;99.90
22008;DHT22;11168;56.976;24.168;2023-05-16T04:02:39;13.20;99.90
22008;DHT22;11168;56.976;24.168;2023-05-16T04:05:07;13.30;99.90
22008;DHT22;11168;56.976;24.168;2023-05-16T04:07:36;13.30;99.90
22008;DHT22;11168;56.976;24.168;2023-05-16T04:10:04;13.30;99.90
22008;DHT22;11168;56.976;24.168;2023-05-16T04:12:32;13.30;99.90
22008;DHT22;11168;56.976;24.168;2023-05-16T04:14:59;13.30;99.90
22008;DHT22;11168;56.976;24.168;2023-05-16T04:17:26;13.30;99.90
22008;DHT22;11168;56.976;24.168;2023-05-16T04:19:53;13.40;99.90
22008;DHT22;11168;56.976;24.168;2023-05-16T04:22:20;13.40;99.90
22008;DHT22;11168;56.976;24.168;2023-05-16T04:24:48;13.40;99.90
22008;DHT22;11168;56.976;24.168;2023-05-16T04:27:16;13.50;99.90
22008;DHT22;11168;56.976;24.168;2023-05-16T04:29:43;13.50;99.90
22008;DHT22;11168;56.976;24.168;2023-05-16T04:32:10;13.60;99.90
22008;DHT22;11168;56.976;24.168;2023-05-16T04:34:38;13.50;99.90
22008;DHT22;11168;56.976;24.168;2023-05-16T04:37:06;13.60;99.90
22008;DHT22;11168;56.976;24.168;2023-05-16T04:39:35;13.60;99.90
22008;DHT22;11168;56.976;24.168;2023-05-16T04:42:02;13.60;99.90
22008;DHT22;11168;56.976;24.168;2023-05-16T04:44:30;13.60;99.90
22008;DHT22;11168;56.976;24.168;2023-05-16T04:46:57;13.70;99.90
22008;DHT22;11168;56.976;24.168;2023-05-16T04:49:25;13.80;99.90
22008;DHT22;11168;56.976;24.168;2023-05-16T04:51:52;13.80;99.90
22008;DHT22;11168;56.976;24.168;2023-05-16T04:54:19;13.80;99.90
22008;DHT22;11168;56.976;24.168;2023-05-16T04:56:46;14.00;99.90
22008;DHT22;11168;56.976;24.168;2023-05-16T04:59:13;14.00;99.90
22008;DHT22;11168;56.976;24.168;2023-05-16T05:01:40;14.10;99.90
22008;DHT22;11168;56.976;24.168;2023-05-16T05:04:07;14.10;99.90
22008;DHT22;11168;56.976;24.168;2023-05-16T05:06:34;14.20;99.90
22008;DHT22;11168;56.976;24.168;2023-05-16T05:09:01;14.20;99.90
22008;DHT22;11168;56.976;24.168;2023-05-16T05:11:28;14.20;99.90
22008;DHT22;11168;56.976;24.168;2023-05-16T05:13:55;14.30;99.90
22008;DHT22;11168;56.976;24.168;2023-05-16T05:16:22;14.20;99.90
22008;DHT22;11168;56.976;24.168;2023-05-16T05:18:49;14.20;99.90
22008;DHT22;11168;56.976;24.168;2023-05-16T05:21:16;14.30;99.90
22008;DHT22;11168;56.976;24.168;2023-05-16T05:23:45;14.40;99.90
22008;DHT22;11168;56.976;24.168;2023-05-16T05:26:12;14.40;99.90
22008;DHT22;11168;56.976;24.168;2023-05-16T05:28:39;14.40;99.90
22008;DHT22;11168;56.976;24.168;2023-05-16T05:31:16;14.60;99.90
22008;DHT22;11168;56.976;24.168;2023-05-16T05:33:43;14.60;99.90
22008;DHT22;11168;56.976;24.168;2023-05-16T05:36:10;14.80;99.90
22008;DHT22;11168;56.976;24.168;2023-05-16T05:38:38;14.70;99.90
22008;DHT22;11168;56.976;24.168;2023-05-16T05:41:04;14.80;99.90
22008;DHT22;11168;56.976;24.168;2023-05-16T05:43:32;14.90;99.90
22008;DHT22;11168;56.976;24.168;2023-05-16T05:46:00;15.10;99.90
22008;DHT22;11168;56.976;24.168;2023-05-16T05:48:27;15.30;99.90
22008;DHT22;11168;56.976;24.168;2023-05-16T05:50:55;15.40;99.90
22008;DHT22;11168;56.976;24.168;2023-05-16T05:53:22;15.40;99.90
22008;DHT22;11168;56.976;24.168;2023-05-16T05:55:49;15.30;99.90
22008;DHT22;11168;56.976;24.168;2023-05-16T05:58:16;15.30;99.90
22008;DHT22;11168;56.976;24.168;2023-05-16T06:00:43;15.20;99.90
22008;DHT22;11168;56.976;24.168;2023-05-16T06:03:10;15.20;99.90
22008;DHT22;11168;56.976;24.168;2023-05-16T06:05:37;15.10;99.90
22008;DHT22;11168;56.976;24.168;2023-05-16T06:08:04;15.10;99.90
22008;DHT22;11168;56.976;24.168;2023-05-16T06:10:31;15.00;99.90
22008;DHT22;11168;56.976;24.168;2023-05-16T06:12:58;15.00;99.90
22008;DHT22;11168;56.976;24.168;2023-05-16T06:15:25;15.10;99.90
22008;DHT22;11168;56.976;24.168;2023-05-16T06:17:53;15.10;99.90
22008;DHT22;11168;56.976;24.168;2023-05-16T06:20:20;15.10;99.90
22008;DHT22;11168;56.976;24.168;2023-05-16T06:22:47;15.00;99.90
22008;DHT22;11168;56.976;24.168;2023-05-16T06:25:14;15.00;99.90
22008;DHT22;11168;56.976;24.168;2023-05-16T06:27:41;15.00;99.90
22008;DHT22;11168;56.976;24.168;2023-05-16T06:30:08;15.00;99.90
22008;DHT22;11168;56.976;24.168;2023-05-16T06:32:35;15.00;99.90
22008;DHT22;11168;56.976;24.168;2023-05-16T06:35:02;14.90;99.90
22008;DHT22;11168;56.976;24.168;2023-05-16T06:37:29;14.80;99.90
22008;DHT22;11168;56.976;24.168;2023-05-16T06:39:57;14.70;99.90
22008;DHT22;11168;56.976;24.168;2023-05-16T06:42:24;14.70;99.90
22008;DHT22;11168;56.976;24.168;2023-05-16T06:44:51;14.70;99.90
22008;DHT22;11168;56.976;24.168;2023-05-16T06:47:18;14.70;99.90
22008;DHT22;11168;56.976;24.168;2023-05-16T06:49:46;14.60;99.90
22008;DHT22;11168;56.976;24.168;2023-05-16T06:52:13;14.60;99.90
22008;DHT22;11168;56.976;24.168;2023-05-16T06:54:40;14.60;99.90
22008;DHT22;11168;56.976;24.168;2023-05-16T06:57:09;14.50;99.90
22008;DHT22;11168;56.976;24.168;2023-05-16T06:59:36;14.60;99.90
22008;DHT22;11168;56.976;24.168;2023-05-16T07:02:04;14.50;99.90
22008;DHT22;11168;56.976;24.168;2023-05-16T07:04:31;14.60;99.90
22008;DHT22;11168;56.976;24.168;2023-05-16T07:06:58;14.60;99.90
22008;DHT22;11168;56.976;24.168;2023-05-16T07:09:25;14.60;99.90
22008;DHT22;11168;56.976;24.168;2023-05-16T07:11:52;14.60;99.90
22008;DHT22;11168;56.976;24.168;2023-05-16T07:14:19;14.50;99.90
22008;DHT22;11168;56.976;24.168;2023-05-16T07:16:46;14.70;99.90
22008;DHT22;11168;56.976;24.168;2023-05-16T07:19:13;14.60;99.90
22008;DHT22;11168;56.976;24.168;2023-05-16T07:21:40;14.70;99.90
22008;DHT22;11168;56.976;24.168;2023-05-16T07:24:07;14.70;99.90
22008;DHT22;11168;56.976;24.168;2023-05-16T07:26:34;14.70;99.90
22008;DHT22;11168;56.976;24.168;2023-05-16T07:29:01;14.60;99.90
22008;DHT22;11168;56.976;24.168;2023-05-16T07:31:30;14.60;99.90
22008;DHT22;11168;56.976;24.168;2023-05-16T07:33:57;14.50;99.90
22008;DHT22;11168;56.976;24.168;2023-05-16T07:36:24;14.50;99.90
22008;DHT22;11168;56.976;24.168;2023-05-16T07:38:51;14.50;99.90
22008;DHT22;11168;56.976;24.168;2023-05-16T07:41:18;14.50;99.90
22008;DHT22;11168;56.976;24.168;2023-05-16T07:43:45;14.50;99.90
22008;DHT22;11168;56.976;24.168;2023-05-16T07:46:12;14.40;99.90
22008;DHT22;11168;56.976;24.168;2023-05-16T07:48:40;14.40;99.90
22008;DHT22;11168;56.976;24.168;2023-05-16T07:51:07;14.40;99.90
22008;DHT22;11168;56.976;24.168;2023-05-16T07:53:34;14.40;99.90
22008;DHT22;11168;56.976;24.168;2023-05-16T07:56:01;14.40;99.90
22008;DHT22;11168;56.976;24.168;2023-05-16T07:58:28;14.30;99.90
22008;DHT22;11168;56.976;24.168;2023-05-16T08:00:55;14.30;99.90
22008;DHT22;11168;56.976;24.168;2023-05-16T08:03:22;14.30;99.90
22008;DHT22;11168;56.976;24.168;2023-05-16T08:05:49;14.40;99.90
22008;DHT22;11168;56.976;24.168;2023-05-16T08:08:17;14.30;99.90
22008;DHT22;11168;56.976;24.168;2023-05-16T08:10:44;14.30;99.90
22008;DHT22;11168;56.976;24.168;2023-05-16T08:13:12;14.30;99.90
22008;DHT22;11168;56.976;24.168;2023-05-16T08:15:39;14.20;99.90
22008;DHT22;11168;56.976;24.168;2023-05-16T08:18:14;14.20;99.90
22008;DHT22;11168;56.976;24.168;2023-05-16T08:20:42;14.20;99.90
22008;DHT22;11168;56.976;24.168;2023-05-16T08:23:09;14.20;99.90
22008;DHT22;11168;56.976;24.168;2023-05-16T08:25:39;14.20;99.90
22008;DHT22;11168;56.976;24.168;2023-05-16T08:28:06;14.20;99.90
22008;DHT22;11168;56.976;24.168;2023-05-16T08:30:33;14.30;99.90
22008;DHT22;11168;56.976;24.168;2023-05-16T08:33:00;14.30;99.90
22008;DHT22;11168;56.976;24.168;2023-05-16T08:35:31;14.30;99.90
22008;DHT22;11168;56.976;24.168;2023-05-16T08:38:00;14.30;99.90
22008;DHT22;11168;56.976;24.168;2023-05-16T08:40:29;14.30;99.90
22008;DHT22;11168;56.976;24.168;2023-05-16T08:42:57;14.50;99.90
22008;DHT22;11168;56.976;24.168;2023-05-16T08:45:24;14.80;99.90
22008;DHT22;11168;56.976;24.168;2023-05-16T08:47:54;14.80;99.90
22008;DHT22;11168;56.976;24.168;2023-05-16T08:50:23;14.70;99.90
22008;DHT22;11168;56.976;24.168;2023-05-16T08:52:52;14.70;99.90
22008;DHT22;11168;56.976;24.168;2023-05-16T08:55:20;14.70;99.90
22008;DHT22;11168;56.976;24.168;2023-05-16T08:57:50;14.70;99.90
22008;DHT22;11168;56.976;24.168;2023-05-16T09:00:21;14.80;99.90
22008;DHT22;11168;56.976;24.168;2023-05-16T09:02:48;14.90;99.90
22008;DHT22;11168;56.976;24.168;2023-05-16T09:05:16;14.90;99.90
22008;DHT22;11168;56.976;24.168;2023-05-16T09:07:44;15.10;99.90
22008;DHT22;11168;56.976;24.168;2023-05-16T09:10:12;15.10;99.90
22008;DHT22;11168;56.976;24.168;2023-05-16T09:12:40;15.00;99.90
22008;DHT22;11168;56.976;24.168;2023-05-16T09:15:09;15.20;99.90
22008;DHT22;11168;56.976;24.168;2023-05-16T09:17:39;15.50;99.90
22008;DHT22;11168;56.976;24.168;2023-05-16T09:20:12;15.50;99.90
22008;DHT22;11168;56.976;24.168;2023-05-16T09:22:48;15.60;99.90
22008;DHT22;11168;56.976;24.168;2023-05-16T09:25:21;15.60;99.90
22008;DHT22;11168;56.976;24.168;2023-05-16T09:27:59;15.50;99.90
22008;DHT22;11168;56.976;24.168;2023-05-16T09:30:30;15.30;99.90
22008;DHT22;11168;56.976;24.168;2023-05-16T09:32:58;15.30;99.90
22008;DHT22;11168;56.976;24.168;2023-05-16T09:35:25;15.20;99.90
22008;DHT22;11168;56.976;24.168;2023-05-16T09:38:14;15.10;99.90
22008;DHT22;11168;56.976;24.168;2023-05-16T09:40:41;15.10;99.90
22008;DHT22;11168;56.976;24.168;2023-05-16T09:43:09;15.10;99.90
22008;DHT22;11168;56.976;24.168;2023-05-16T09:45:36;15.00;99.90
22008;DHT22;11168;56.976;24.168;2023-05-16T09:48:04;15.10;99.90
22008;DHT22;11168;56.976;24.168;2023-05-16T09:50:36;15.20;99.90
22008;DHT22;11168;56.976;24.168;2023-05-16T09:53:04;15.30;99.90
22008;DHT22;11168;56.976;24.168;2023-05-16T09:55:31;15.30;99.90
22008;DHT22;11168;56.976;24.168;2023-05-16T09:57:58;15.40;99.90
22008;DHT22;11168;56.976;24.168;2023-05-16T10:00:29;15.30;99.90
22008;DHT22;11168;56.976;24.168;2023-05-16T10:02:58;15.30;99.90
22008;DHT22;11168;56.976;24.168;2023-05-16T10:05:30;15.40;99.90
22008;DHT22;11168;56.976;24.168;2023-05-16T10:07:58;15.40;99.90
22008;DHT22;11168;56.976;24.168;2023-05-16T10:10:25;15.40;99.90
22008;DHT22;11168;56.976;24.168;2023-05-16T10:12:56;15.30;99.90
22008;DHT22;11168;56.976;24.168;2023-05-16T10:15:24;15.10;99.90
22008;DHT22;11168;56.976;24.168;2023-05-16T10:17:56;15.00;99.90
22008;DHT22;11168;56.976;24.168;2023-05-16T10:20:26;14.90;99.90
22008;DHT22;11168;56.976;24.168;2023-05-16T10:22:55;14.90;99.90
22008;DHT22;11168;56.976;24.168;2023-05-16T10:27:53;14.80;99.90
22008;DHT22;11168;56.976;24.168;2023-05-16T10:30:21;14.90;99.90
22008;DHT22;11168;56.976;24.168;2023-05-16T10:32:49;14.90;99.90
22008;DHT22;11168;56.976;24.168;2023-05-16T10:35:18;15.00;99.90
22008;DHT22;11168;56.976;24.168;2023-05-16T10:37:46;14.90;99.90
22008;DHT22;11168;56.976;24.168;2023-05-16T10:40:14;14.90;99.90
22008;DHT22;11168;56.976;24.168;2023-05-16T10:42:59;14.90;99.90
22008;DHT22;11168;56.976;24.168;2023-05-16T10:45:26;15.00;99.90
22008;DHT22;11168;56.976;24.168;2023-05-16T10:47:55;15.00;99.90
22008;DHT22;11168;56.976;24.168;2023-05-16T10:50:36;15.00;99.90
22008;DHT22;11168;56.976;24.168;2023-05-16T10:53:29;14.90;99.90
22008;DHT22;11168;56.976;24.168;2023-05-16T11:01:17;14.50;99.90
22008;DHT22;11168;56.976;24.168;2023-05-16T11:09:07;14.50;99.90
22008;DHT22;11168;56.976;24.168;2023-05-16T11:16:52;14.40;99.90
22008;DHT22;11168;56.976;24.168;2023-05-16T11:19:30;14.50;99.90
22008;DHT22;11168;56.976;24.168;2023-05-16T11:22:25;14.70;99.90
22008;DHT22;11168;56.976;24.168;2023-05-16T11:25:06;14.80;99.90
22008;DHT22;11168;56.976;24.168;2023-05-16T11:32:36;14.60;99.90
22008;DHT22;11168;56.976;24.168;2023-05-16T11:35:04;14.60;99.90
22008;DHT22;11168;56.976;24.168;2023-05-16T11:37:33;14.50;99.90
22008;DHT22;11168;56.976;24.168;2023-05-16T11:40:03;14.50;99.90
22008;DHT22;11168;56.976;24.168;2023-05-16T11:42:37;14.50;99.90
22008;DHT22;11168;56.976;24.168;2023-05-16T11:45:09;14.50;99.90
22008;DHT22;11168;56.976;24.168;2023-05-16T11:47:42;14.50;99.90
22008;DHT22;11168;56.976;24.168;2023-05-16T11:50:11;14.60;99.90
22008;DHT22;11168;56.976;24.168;2023-05-16T11:52:43;14.60;99.90
22008;DHT22;11168;56.976;24.168;2023-05-16T11:55:10;14.60;99.90
22008;DHT22;11168;56.976;24.168;2023-05-16T11:57:39;14.80;99.90
22008;DHT22;11168;56.976;24.168;2023-05-16T12:00:18;14.80;99.90
22008;DHT22;11168;56.976;24.168;2023-05-16T12:02:48;14.80;99.90
22008;DHT22;11168;56.976;24.168;2023-05-16T12:05:17;14.90;99.90
22008;DHT22;11168;56.976;24.168;2023-05-16T12:07:45;14.90;99.90
22008;DHT22;11168;56.976;24.168;2023-05-16T12:10:14;15.00;99.90
22008;DHT22;11168;56.976;24.168;2023-05-16T12:12:46;15.00;99.90
22008;DHT22;11168;56.976;24.168;2023-05-16T12:15:14;15.00;99.90
22008;DHT22;11168;56.976;24.168;2023-05-16T12:17:44;15.10;99.90
22008;DHT22;11168;56.976;24.168;2023-05-16T12:20:12;15.20;99.90
22008;DHT22;11168;56.976;24.168;2023-05-16T12:22:44;15.40;99.90
22008;DHT22;11168;56.976;24.168;2023-05-16T12:27:47;16.00;99.90
22008;DHT22;11168;56.976;24.168;2023-05-16T12:30:16;16.20;99.90
22008;DHT22;11168;56.976;24.168;2023-05-16T12:32:44;16.20;99.90
22008;DHT22;11168;56.976;24.168;2023-05-16T12:35:11;15.90;99.90
22008;DHT22;11168;56.976;24.168;2023-05-16T12:37:42;15.70;99.90
22008;DHT22;11168;56.976;24.168;2023-05-16T12:40:09;15.50;99.90
22008;DHT22;11168;56.976;24.168;2023-05-16T12:42:38;15.40;99.90
22008;DHT22;11168;56.976;24.168;2023-05-16T12:45:13;15.40;99.90
22008;DHT22;11168;56.976;24.168;2023-05-16T12:47:42;15.50;99.90
22008;DHT22;11168;56.976;24.168;2023-05-16T12:50:10;15.80;99.90
22008;DHT22;11168;56.976;24.168;2023-05-16T12:52:49;16.20;99.90
22008;DHT22;11168;56.976;24.168;2023-05-16T12:55:20;16.60;99.90
22008;DHT22;11168;56.976;24.168;2023-05-16T12:57:48;16.70;99.90
22008;DHT22;11168;56.976;24.168;2023-05-16T13:00:17;16.80;99.90
22008;DHT22;11168;56.976;24.168;2023-05-16T13:02:47;17.00;99.90
22008;DHT22;11168;56.976;24.168;2023-05-16T13:05:17;17.30;99.90
22008;DHT22;11168;56.976;24.168;2023-05-16T13:07:50;17.30;99.90
22008;DHT22;11168;56.976;24.168;2023-05-16T13:10:17;17.30;99.90
22008;DHT22;11168;56.976;24.168;2023-05-16T13:12:45;17.40;99.90
22008;DHT22;11168;56.976;24.168;2023-05-16T13:15:13;17.50;99.90
22008;DHT22;11168;56.976;24.168;2023-05-16T13:17:42;17.60;99.90
22008;DHT22;11168;56.976;24.168;2023-05-16T13:20:13;17.30;99.90
22008;DHT22;11168;56.976;24.168;2023-05-16T13:22:42;17.20;99.90
22008;DHT22;11168;56.976;24.168;2023-05-16T13:25:09;17.10;99.90
22008;DHT22;11168;56.976;24.168;2023-05-16T13:27:37;17.20;99.90
22008;DHT22;11168;56.976;24.168;2023-05-16T13:30:04;16.90;99.90
22008;DHT22;11168;56.976;24.168;2023-05-16T13:32:31;16.80;99.90
22008;DHT22;11168;56.976;24.168;2023-05-16T13:34:58;16.70;99.90
22008;DHT22;11168;56.976;24.168;2023-05-16T13:37:26;16.80;99.90
22008;DHT22;11168;56.976;24.168;2023-05-16T13:39:53;16.90;99.90
22008;DHT22;11168;56.976;24.168;2023-05-16T13:42:21;17.00;99.90
22008;DHT22;11168;56.976;24.168;2023-05-16T13:44:48;17.20;99.90
22008;DHT22;11168;56.976;24.168;2023-05-16T13:47:15;17.30;99.90
22008;DHT22;11168;56.976;24.168;2023-05-16T13:49:43;17.30;99.90
22008;DHT22;11168;56.976;24.168;2023-05-16T13:52:10;17.10;99.90
22008;DHT22;11168;56.976;24.168;2023-05-16T13:54:37;17.10;99.90
22008;DHT22;11168;56.976;24.168;2023-05-16T13:57:06;16.90;99.90
22008;DHT22;11168;56.976;24.168;2023-05-16T13:59:36;16.90;99.90
22008;DHT22;11168;56.976;24.168;2023-05-16T14:02:23;16.90;99.90
22008;DHT22;11168;56.976;24.168;2023-05-16T14:04:52;16.90;99.90
22008;DHT22;11168;56.976;24.168;2023-05-16T14:07:19;16.90;99.90
22008;DHT22;11168;56.976;24.168;2023-05-16T14:09:46;16.80;99.90
22008;DHT22;11168;56.976;24.168;2023-05-16T14:12:13;16.70;99.90
22008;DHT22;11168;56.976;24.168;2023-05-16T14:14:40;16.70;99.90
22008;DHT22;11168;56.976;24.168;2023-05-16T14:17:07;16.70;99.90
22008;DHT22;11168;56.976;24.168;2023-05-16T14:19:34;16.70;99.90
22008;DHT22;11168;56.976;24.168;2023-05-16T14:22:02;16.70;99.90
22008;DHT22;11168;56.976;24.168;2023-05-16T14:24:29;16.70;99.90
22008;DHT22;11168;56.976;24.168;2023-05-16T14:26:56;16.70;99.90
22008;DHT22;11168;56.976;24.168;2023-05-16T14:29:25;16.60;99.90
22008;DHT22;11168;56.976;24.168;2023-05-16T14:31:52;16.50;99.90
22008;DHT22;11168;56.976;24.168;2023-05-16T14:34:20;16.50;99.90
22008;DHT22;11168;56.976;24.168;2023-05-16T14:36:48;16.40;99.90
22008;DHT22;11168;56.976;24.168;2023-05-16T14:39:16;16.40;99.90
22008;DHT22;11168;56.976;24.168;2023-05-16T14:41:43;16.40;99.90
22008;DHT22;11168;56.976;24.168;2023-05-16T14:44:10;16.40;99.90
22008;DHT22;11168;56.976;24.168;2023-05-16T14:46:37;16.40;99.90
22008;DHT22;11168;56.976;24.168;2023-05-16T14:49:04;16.40;99.90
22008;DHT22;11168;56.976;24.168;2023-05-16T14:51:31;16.40;99.90
22008;DHT22;11168;56.976;24.168;2023-05-16T14:53:58;16.40;99.90
22008;DHT22;11168;56.976;24.168;2023-05-16T14:56:26;16.50;99.90
22008;DHT22;11168;56.976;24.168;2023-05-16T14:58:53;16.60;99.90
22008;DHT22;11168;56.976;24.168;2023-05-16T15:01:20;16.60;99.90
22008;DHT22;11168;56.976;24.168;2023-05-16T15:03:48;16.60;99.90
22008;DHT22;11168;56.976;24.168;2023-05-16T15:06:22;16.70;99.90
22008;DHT22;11168;56.976;24.168;2023-05-16T15:08:50;16.80;99.90
22008;DHT22;11168;56.976;24.168;2023-05-16T15:11:17;16.70;99.90
22008;DHT22;11168;56.976;24.168;2023-05-16T15:13:44;16.60;99.90
22008;DHT22;11168;56.976;24.168;2023-05-16T15:16:11;16.40;99.90
22008;DHT22;11168;56.976;24.168;2023-05-16T15:18:40;16.00;99.90
22008;DHT22;11168;56.976;24.168;2023-05-16T15:21:07;15.50;99.90
22008;DHT22;11168;56.976;24.168;2023-05-16T15:23:34;14.90;99.90
22008;DHT22;11168;56.976;24.168;2023-05-16T15:26:03;14.50;99.90
22008;DHT22;11168;56.976;24.168;2023-05-16T15:28:30;14.30;99.90
22008;DHT22;11168;56.976;24.168;2023-05-16T15:30:57;14.20;99.90
22008;DHT22;11168;56.976;24.168;2023-05-16T15:33:25;14.00;99.90
22008;DHT22;11168;56.976;24.168;2023-05-16T15:35:52;13.90;99.90
22008;DHT22;11168;56.976;24.168;2023-05-16T15:38:19;13.80;99.90
22008;DHT22;11168;56.976;24.168;2023-05-16T15:40:46;13.70;99.90
22008;DHT22;11168;56.976;24.168;2023-05-16T15:43:23;13.70;99.90
22008;DHT22;11168;56.976;24.168;2023-05-16T15:45:50;13.80;99.90
22008;DHT22;11168;56.976;24.168;2023-05-16T15:48:17;13.80;99.90
22008;DHT22;11168;56.976;24.168;2023-05-16T15:50:44;13.90;99.90
22008;DHT22;11168;56.976;24.168;2023-05-16T15:53:11;14.00;99.90
22008;DHT22;11168;56.976;24.168;2023-05-16T15:55:38;14.00;99.90